KJCT

Kimble County Airport

Junction, Texas, USA
METAR KJCT 232051Z AUTO 09010KT 10SM OVC041 21/12 A3012 RMK AO2 SLP176 T02060122 56022
Observed Flight Rules
Oct-23 @ 20:51 UTC (30 minutes ago) Visual Flight Rules
Wind Visibility Clouds
90° at 10 knots 10 miles
  • Overcast at 4,100' AGL
Temperatures Readings
Current 21°C / 70°F
Dewpoint 12°C / 54°F
Humidity 57%
Altimeter 30.12" Hg
Pressure 1017.6 hPa
Elevation 522
METAR KJCT 232051Z AUTO 09010KT 10SM OVC041 21/12 A3012 RMK AO2 SLP176 T02060122 56022
Observed Flight Rules
Oct-23 @ 20:51 UTC
(30 minutes ago)
VFR
Wind Visibility
90° at 10 knots 10 miles
Clouds
  • Overcast at 4,100' AGL
Temperature Dewpoint
21°C / 70°F 12°C / 54°F
Humidity Altimeter Pressure
57% 30.12" Hg 1017.6 hPa